Погода Ветринона неделю

Витебская область, Белоруссия

22 - 28 июля
  • 22июля
    Сегодня
    +15°
    +25°
    Небольшая облачность
    ВремяПогодаТемператураВлажностьДавлениеВетер, м/сВероятность осадков
    00:00Ясно и безоблачно+16°C86 %747 мм0.5 м/с2 %
    03:00Ясно и безоблачно+15°C98 %747 мм0.5 м/с2 %
    06:00Ясно и безоблачно+15°C98 %747 мм0.8 м/с2 %
    09:00Ясно и безоблачно+20°C84 %747 мм0.6 м/с3 %
    12:00Облачно с прояснениями+23°C69 %747 мм1.5 м/с19 %
    15:00Небольшая облачность+25°C61 %747 мм1.3 м/с24 %
    18:00Небольшая облачность+25°C59 %747 мм1.7 м/с21 %
    21:00Небольшая облачность+21°C80 %748 мм0.9 м/с12 %
  • 23июля
    Вторник
    +14°
    +26°
    Ясно и безоблачно
    ВремяПогодаТемператураВлажностьДавлениеВетер, м/сВероятность осадков
    00:00Ясно и безоблачно+18°C94 %748 мм0.9 м/с2 %
    03:00Ясно и безоблачно+16°C96 %748 мм0.7 м/с2 %
    06:00Ясно и безоблачно+16°C96 %749 мм0.9 м/с2 %
    09:00Ясно и безоблачно+21°C81 %749 мм1.4 м/с2 %
    12:00Практически безоблачно+24°C61 %749 мм2.2 м/с7 %
    15:00Ясно и безоблачно+25°C54 %749 мм1.6 м/с21 %
    18:00Практически безоблачно+25°C52 %748 мм1.5 м/с11 %
    21:00Ясно и безоблачно+21°C67 %748 мм0.8 м/с4 %
  • 24июля
    Среда
    +14°
    +26°
    Небольшая облачность
    ВремяПогодаТемператураВлажностьДавлениеВетер, м/сВероятность осадков
    00:00Ясно и безоблачно+19°C71 %748 мм0.9 м/с2 %
    03:00Ясно и безоблачно+16°C83 %748 мм0.7 м/с2 %
    06:00Ясно и безоблачно+15°C87 %748 мм0.9 м/с2 %
    09:00Ясно и безоблачно+21°C73 %748 мм1.2 м/с2 %
    12:00Ясно и безоблачно+24°C52 %748 мм1.8 м/с14 %
    15:00Небольшая облачность+25°C49 %747 мм2.2 м/с29 %
    18:00Небольшая облачность+24°C55 %747 мм2.5 м/с37 %
    21:00Ясно и безоблачно+20°C75 %747 мм0.9 м/с12 %
  • 25июля
    Четверг
    +15°
    +26°
    Пасмурно, сплошная облачность
    ВремяПогодаТемператураВлажностьДавлениеВетер, м/сВероятность осадков
    00:00Ясно и безоблачно+18°C81 %747 мм1.0 м/с2 %
    03:00Ясно и безоблачно+16°C83 %746 мм0.8 м/с4 %
    06:00Ясно и безоблачно+15°C86 %746 мм0.9 м/с7 %
    09:00Практически безоблачно+21°C66 %747 мм1.4 м/с9 %
    12:00Практически безоблачно+25°C42 %747 мм2.6 м/с9 %
    15:00Пасмурно, сплошная облачность+25°C40 %746 мм2.1 м/с10 %
    18:00Облачно с прояснениями+26°C47 %746 мм2.0 м/с8 %
    21:00Облачно с прояснениями+21°C69 %746 мм0.7 м/с8 %
  • 26июля
    Пятница
    +15°
    +27°
    Небольшая облачность и лёгкий дождик
    ВремяПогодаТемператураВлажностьДавлениеВетер, м/сВероятность осадков
    00:00Практически безоблачно+18°C79 %746 мм0.8 м/с6 %
    03:00Облачно с прояснениями+16°C78 %747 мм0.9 м/с6 %
    06:00Облачно с прояснениями+17°C73 %747 мм0.8 м/с5 %
    09:00Облачно с прояснениями+21°C65 %748 мм0.9 м/с8 %
    12:00Практически безоблачно+25°C46 %748 мм2.0 м/с25 %
    15:00Небольшая облачность и лёгкий дождик+26°C45 %748 мм1.9 м/с39 %
    18:00Небольшая облачность+26°C53 %748 мм1.8 м/с49 %
    21:00Облачно с прояснениями+22°C77 %748 мм0.7 м/с24 %
Мы используем cookies
Соглашаюсь